Time;durP1;ratioP1;P1;durP2;ratioP2;P2;SDS_P1;SDS_P2;PMS_P1;PMS_P2;Temp;Humidity;BMP_temperature;BMP_pressure;BME280_temperature;BME280_humidity;BME280_pressure;Samples;Min_cycle;Max_cycle;Signal;HPM_P1;HPM_P2
2023/10/12 00:00:27;;;;;;;8.77;4.32;;;13.40;87.50;;;;;;5068639;28;20217;-86
2023/10/12 00:02:58;;;;;;;5.53;3.90;;;13.40;86.80;;;;;;5068503;28;20198;-86
2023/10/12 00:05:28;;;;;;;5.70;3.70;;;13.50;86.70;;;;;;5066395;28;20203;-86
2023/10/12 00:07:56;;;;;;;4.28;3.30;;;13.50;86.00;;;;;;5069031;28;20247;-86
2023/10/12 00:10:24;;;;;;;5.05;3.38;;;13.50;85.80;;;;;;5070555;28;20658;-86
2023/10/12 00:12:54;;;;;;;6.18;3.42;;;13.50;85.80;;;;;;5072677;28;20739;-86
2023/10/12 00:15:25;;;;;;;8.05;3.22;;;13.50;85.70;;;;;;5069693;28;21760;-86
2023/10/12 00:17:53;;;;;;;6.70;3.42;;;13.40;86.00;;;;;;5066615;28;20194;-86
2023/10/12 00:20:25;;;;;;;9.35;3.88;;;13.40;86.50;;;;;;5064279;28;20217;-86
2023/10/12 00:22:52;;;;;;;7.35;3.60;;;13.50;87.70;;;;;;5068620;28;20304;-85
2023/10/12 00:25:20;;;;;;;6.95;4.05;;;13.50;85.90;;;;;;5070936;28;20235;-86
2023/10/12 00:27:48;;;;;;;5.93;3.50;;;13.50;86.00;;;;;;5062144;28;21199;-86
2023/10/12 00:30:16;;;;;;;7.18;3.70;;;13.50;87.00;;;;;;5060058;28;20198;-86
2023/10/12 00:32:43;;;;;;;9.32;3.70;;;13.40;87.00;;;;;;5066856;28;20239;-86
2023/10/12 00:35:13;;;;;;;5.47;3.60;;;13.30;87.50;;;;;;5066672;28;20646;-86
2023/10/12 00:37:43;;;;;;;7.13;3.33;;;13.30;86.20;;;;;;5075143;28;20227;-86
2023/10/12 00:40:26;;;;;;;8.60;3.83;;;13.30;87.30;;;;;;5066412;28;20249;-86
2023/10/12 00:42:53;;;;;;;6.55;3.60;;;13.50;86.60;;;;;;5061303;28;20198;-86
2023/10/12 00:45:28;;;;;;;7.15;3.42;;;13.60;85.80;;;;;;5045402;28;20201;-86
2023/10/12 00:47:56;;;;;;;7.38;3.80;;;13.50;86.00;;;;;;5060568;28;20286;-86
2023/10/12 00:50:27;;;;;;;7.15;4.18;;;13.40;86.70;;;;;;5058893;28;20604;-86
2023/10/12 00:52:57;;;;;;;8.32;3.60;;;13.20;87.20;;;;;;5071494;28;20189;-86
2023/10/12 00:55:35;;;;;;;7.05;3.58;;;13.20;88.00;;;;;;5047084;28;20208;-86
2023/10/12 00:58:04;;;;;;;5.88;3.42;;;13.20;87.80;;;;;;5064831;28;20569;-86
2023/10/12 01:00:35;;;;;;;8.02;3.97;;;13.10;87.80;;;;;;5066262;28;20279;-86
2023/10/12 01:03:27;;;;;;;9.23;3.67;;;13.00;89.40;;;;;;5058510;28;20256;-86
2023/10/12 01:06:12;;;;;;;5.28;3.58;;;13.00;88.50;;;;;;5070444;28;20550;-86
2023/10/12 01:08:43;;;;;;;8.13;3.70;;;13.00;88.90;;;;;;5062808;28;20197;-86
2023/10/12 01:11:18;;;;;;;6.53;3.33;;;13.00;88.70;;;;;;5067025;28;20201;-86
2023/10/12 01:13:46;;;;;;;5.95;3.10;;;13.10;88.70;;;;;;5069859;28;20197;-86
2023/10/12 01:16:20;;;;;;;6.47;3.38;;;13.20;88.40;;;;;;5068273;28;20202;-86
2023/10/12 01:19:00;;;;;;;5.68;3.33;;;13.20;88.10;;;;;;5069279;28;20291;-86
2023/10/12 01:21:28;;;;;;;6.07;3.65;;;13.10;88.30;;;;;;5059162;28;20213;-86
2023/10/12 01:24:02;;;;;;;4.88;3.40;;;12.90;88.40;;;;;;5060516;28;20260;-86
2023/10/12 01:26:31;;;;;;;5.22;3.50;;;12.90;89.30;;;;;;5070070;28;20660;-86
2023/10/12 01:28:59;;;;;;;7.63;3.72;;;13.00;90.00;;;;;;5060463;28;21412;-86
2023/10/12 01:31:27;;;;;;;7.53;3.20;;;13.00;89.30;;;;;;5063921;28;20206;-86
2023/10/12 01:33:55;;;;;;;6.68;3.83;;;12.90;90.10;;;;;;5061869;28;20190;-86
2023/10/12 01:36:27;;;;;;;7.55;3.70;;;12.80;90.20;;;;;;5067751;28;20201;-86
2023/10/12 01:39:10;;;;;;;6.03;3.70;;;12.70;90.90;;;;;;5064109;28;20284;-86
2023/10/12 01:41:40;;;;;;;6.80;3.33;;;12.60;90.90;;;;;;5064274;28;20217;-86
2023/10/12 01:44:10;;;;;;;6.88;3.45;;;12.50;90.90;;;;;;5065078;28;20201;-86
2023/10/12 01:46:39;;;;;;;7.15;3.53;;;12.50;90.90;;;;;;5068365;28;20189;-86
2023/10/12 01:49:07;;;;;;;5.85;3.35;;;12.60;90.90;;;;;;5066709;28;20212;-86
2023/10/12 01:51:40;;;;;;;6.38;3.45;;;12.60;90.90;;;;;;5066766;28;20254;-85
2023/10/12 01:54:12;;;;;;;5.43;3.58;;;12.60;90.80;;;;;;5061250;28;20258;-87
2023/10/12 01:56:40;;;;;;;6.30;3.50;;;12.70;90.20;;;;;;5063348;28;20216;-86
2023/10/12 01:59:07;;;;;;;6.30;3.72;;;12.80;90.30;;;;;;5063608;28;20276;-86
2023/10/12 02:01:34;;;;;;;6.22;3.80;;;12.80;90.10;;;;;;5050056;28;20710;-85
2023/10/12 02:04:02;;;;;;;8.27;3.60;;;12.70;90.20;;;;;;5066172;28;20193;-87
2023/10/12 02:06:29;;;;;;;7.18;3.80;;;12.60;90.10;;;;;;5060353;28;20680;-86
2023/10/12 02:09:02;;;;;;;6.65;3.50;;;12.60;90.70;;;;;;5068876;28;20205;-86
2023/10/12 02:11:42;;;;;;;5.38;3.72;;;12.50;90.90;;;;;;5065160;28;20251;-86
2023/10/12 02:14:12;;;;;;;7.47;4.03;;;12.40;90.90;;;;;;5065112;28;20201;-86
2023/10/12 02:16:40;;;;;;;7.50;3.70;;;12.50;90.90;;;;;;5064617;28;20197;-86
2023/10/12 02:19:19;;;;;;;6.93;3.75;;;12.40;90.90;;;;;;5061986;28;20735;-86
2023/10/12 02:21:46;;;;;;;7.25;3.75;;;12.30;90.80;;;;;;5065368;28;20243;-86
2023/10/12 02:24:14;;;;;;;7.13;3.50;;;12.40;90.80;;;;;;5054678;28;20202;-86
2023/10/12 02:26:52;;;;;;;6.18;3.95;;;12.50;90.90;;;;;;5066725;28;20224;-86
2023/10/12 02:29:20;;;;;;;7.70;3.90;;;12.50;90.90;;;;;;5043478;28;20289;-86
2023/10/12 02:31:58;;;;;;;7.28;3.47;;;12.50;90.90;;;;;;5060802;28;20202;-86
2023/10/12 02:34:27;;;;;;;6.25;3.45;;;12.40;90.80;;;;;;5064076;28;20232;-85
2023/10/12 02:37:18;;;;;;;5.90;3.25;;;12.30;90.80;;;;;;5066434;28;20270;-86
2023/10/12 02:39:46;;;;;;;6.90;3.63;;;12.40;90.80;;;;;;5069494;28;20284;-85
2023/10/12 02:42:18;;;;;;;8.98;3.63;;;12.40;90.90;;;;;;5059549;28;20224;-86
2023/10/12 02:45:15;;;;;;;8.30;3.60;;;12.40;90.90;;;;;;5060906;28;20214;-86
2023/10/12 02:47:45;;;;;;;5.93;3.42;;;12.30;90.80;;;;;;5067345;28;20228;-86
2023/10/12 02:50:27;;;;;;;5.93;3.50;;;12.30;90.80;;;;;;5065437;28;20200;-86
2023/10/12 02:52:54;;;;;;;5.70;3.45;;;12.40;90.90;;;;;;5056873;28;20287;-86
2023/10/12 02:55:34;;;;;;;9.35;3.53;;;12.30;91.00;;;;;;5073791;28;20209;-86
2023/10/12 02:58:06;;;;;;;6.75;3.67;;;12.20;91.00;;;;;;5061633;28;20267;-85
2023/10/12 03:00:35;;;;;;;6.65;3.50;;;12.20;91.10;;;;;;5070003;28;20256;-86
2023/10/12 03:03:16;;;;;;;7.38;3.90;;;12.20;91.10;;;;;;5064203;28;20224;-85
2023/10/12 03:05:47;;;;;;;5.78;3.75;;;12.10;91.40;;;;;;5071372;28;20636;-86
2023/10/12 03:08:14;;;;;;;5.30;3.67;;;12.00;91.40;;;;;;5070733;28;20229;-86
2023/10/12 03:11:00;;;;;;;5.63;3.45;;;11.90;91.60;;;;;;5070809;28;20746;-86
2023/10/12 03:13:34;;;;;;;6.13;3.65;;;11.90;91.50;;;;;;5063060;28;20193;-86
2023/10/12 03:16:15;;;;;;;8.68;3.42;;;12.00;91.40;;;;;;5066786;28;20201;-86
2023/10/12 03:18:43;;;;;;;6.53;3.47;;;12.00;91.20;;;;;;5062837;28;20712;-86
2023/10/12 03:21:14;;;;;;;8.13;4.05;;;12.00;91.20;;;;;;5066064;28;20693;-86
2023/10/12 03:23:46;;;;;;;6.22;3.78;;;12.00;91.10;;;;;;5071173;28;20201;-86
2023/10/12 03:26:24;;;;;;;7.47;3.55;;;12.00;91.10;;;;;;5069565;28;20201;-86
2023/10/12 03:28:51;;;;;;;4.80;3.35;;;12.00;91.30;;;;;;5056267;28;20205;-86
2023/10/12 03:31:23;;;;;;;6.15;3.35;;;11.90;91.40;;;;;;5067543;28;20285;-86
2023/10/12 03:33:55;;;;;;;6.82;3.67;;;11.80;91.60;;;;;;5057558;28;20193;-86
2023/10/12 03:36:26;;;;;;;7.70;3.88;;;11.80;91.60;;;;;;5063924;28;20206;-86
2023/10/12 03:39:25;;;;;;;7.03;3.65;;;11.80;91.70;;;;;;5063923;28;20240;-86
2023/10/12 03:44:48;;;;;;;6.20;4.30;;;11.60;91.90;;;;;;5066135;28;20335;-86
2023/10/12 03:47:24;;;;;;;6.88;3.75;;;11.60;92.00;;;;;;5044826;28;20193;-86
2023/10/12 03:50:05;;;;;;;8.18;4.03;;;11.50;92.20;;;;;;5063601;28;20197;-86
2023/10/12 03:52:39;;;;;;;6.78;3.60;;;11.60;92.20;;;;;;5068530;28;20224;-85
2023/10/12 03:55:24;;;;;;;5.32;3.63;;;11.50;92.20;;;;;;5064931;28;20197;-86
2023/10/12 03:58:00;;;;;;;7.65;4.47;;;11.50;92.30;;;;;;5070271;28;20204;-86
2023/10/12 04:00:32;;;;;;;8.40;3.92;;;11.50;92.30;;;;;;5067222;28;20201;-86
2023/10/12 04:03:05;;;;;;;6.18;3.50;;;11.60;92.40;;;;;;5064396;28;20270;-86
2023/10/12 04:05:45;;;;;;;5.97;3.60;;;11.60;92.40;;;;;;5059747;28;20205;-86
2023/10/12 04:08:38;;;;;;;6.55;3.60;;;11.50;92.40;;;;;;5064955;28;20197;-86
2023/10/12 04:11:46;;;;;;;5.57;3.17;;;11.60;92.40;;;;;;5064492;28;20194;-86
2023/10/12 04:14:43;;;;;;;5.22;3.42;;;11.60;92.50;;;;;;5053174;28;20201;-86
2023/10/12 04:17:19;;;;;;;5.35;3.83;;;11.80;92.40;;;;;;5071279;28;20239;-86
2023/10/12 04:20:09;;;;;;;5.38;4.00;;;11.80;92.30;;;;;;5066180;28;20739;-85
2023/10/12 04:22:41;;;;;;;9.48;3.75;;;11.90;92.10;;;;;;5070851;28;20275;-86
2023/10/12 04:25:14;;;;;;;8.18;3.92;;;12.10;91.90;;;;;;5054443;28;20644;-86
2023/10/12 04:27:50;;;;;;;8.30;3.70;;;12.10;91.60;;;;;;5060318;28;20411;-86
2023/10/12 04:30:33;;;;;;;8.68;3.38;;;12.20;91.50;;;;;;5060910;28;20200;-86
2023/10/12 04:38:56;;;;;;;5.97;3.50;;;12.50;90.90;;;;;;5064968;28;20209;-85
2023/10/12 04:41:39;;;;;;;8.50;3.65;;;12.50;90.90;;;;;;5068601;28;20206;-85
2023/10/12 04:44:25;;;;;;;10.07;3.60;;;12.60;90.90;;;;;;5070589;28;20219;-85
2023/10/12 04:46:58;;;;;;;11.07;4.47;;;12.60;90.90;;;;;;5064010;28;20194;-85
2023/10/12 04:49:53;;;;;;;5.93;3.95;;;12.70;90.90;;;;;;5065086;28;20251;-85
2023/10/12 04:52:24;;;;;;;5.57;3.70;;;12.70;90.80;;;;;;5069620;28;20267;-85
2023/10/12 04:55:06;;;;;;;8.20;4.00;;;12.70;90.90;;;;;;5062538;28;20201;-84
2023/10/12 04:57:34;;;;;;;6.05;3.63;;;12.70;90.90;;;;;;5063937;28;20198;-85
2023/10/12 05:00:07;;;;;;;8.23;3.50;;;12.70;90.90;;;;;;5065077;28;20201;-85
2023/10/12 05:02:53;;;;;;;7.70;3.90;;;12.70;90.90;;;;;;5067394;28;20267;-85
2023/10/12 05:08:05;;;;;;;7.05;3.70;;;12.70;90.80;;;;;;5069897;28;20212;-85
2023/10/12 05:10:46;;;;;;;10.20;3.83;;;12.70;90.50;;;;;;5068989;28;20366;-86
2023/10/12 05:13:19;;;;;;;7.13;3.80;;;12.80;90.40;;;;;;5070021;28;20204;-85
2023/10/12 05:15:54;;;;;;;7.57;4.35;;;12.90;90.30;;;;;;5068229;28;20197;-88
2023/10/12 05:18:22;;;;;;;5.75;3.63;;;12.90;90.30;;;;;;5065094;28;20246;-86
2023/10/12 05:20:49;;;;;;;7.82;3.65;;;12.90;90.10;;;;;;5065241;28;20205;-88
2023/10/12 05:23:18;;;;;;;7.22;3.95;;;13.00;89.50;;;;;;5060090;28;20234;-86
2023/10/12 05:26:07;;;;;;;4.60;3.60;;;13.10;88.10;;;;;;5062717;28;21926;-86
2023/10/12 05:28:38;;;;;;;6.38;3.85;;;13.20;86.20;;;;;;5064001;28;20203;-88
2023/10/12 05:31:13;;;;;;;7.03;3.72;;;13.30;86.40;;;;;;5071671;28;20535;-89
2023/10/12 05:33:43;;;;;;;5.65;3.53;;;13.30;85.20;;;;;;5072015;28;20185;-88
2023/10/12 05:36:11;;;;;;;8.73;3.67;;;13.40;84.90;;;;;;5061210;28;20266;-89
2023/10/12 05:38:48;;;;;;;8.15;3.65;;;13.50;84.80;;;;;;5063048;28;20197;-85
2023/10/12 05:41:21;;;;;;;6.07;4.05;;;13.40;84.50;;;;;;5068067;28;20258;-85
2023/10/12 05:43:48;;;;;;;6.60;3.38;;;13.50;84.90;;;;;;5059198;28;20217;-86
2023/10/12 05:46:15;;;;;;;9.55;3.70;;;13.50;84.30;;;;;;5065563;28;20200;-86
2023/10/12 05:48:45;;;;;;;5.28;3.28;;;13.50;84.00;;;;;;5068885;28;20212;-85
2023/10/12 05:51:14;;;;;;;9.23;3.92;;;13.50;84.10;;;;;;5066157;28;20278;-86
2023/10/12 05:53:42;;;;;;;9.68;3.95;;;13.50;83.60;;;;;;5070550;28;20247;-86
2023/10/12 05:56:09;;;;;;;7.63;3.50;;;13.50;82.60;;;;;;5066393;28;20302;-86
2023/10/12 05:58:38;;;;;;;6.78;3.08;;;13.60;83.30;;;;;;5060142;28;20646;-87
2023/10/12 06:01:09;;;;;;;8.57;3.85;;;13.60;82.90;;;;;;5060508;28;20217;-85
2023/10/12 06:03:39;;;;;;;11.07;3.85;;;13.70;83.10;;;;;;5064863;28;20673;-85
2023/10/12 06:06:09;;;;;;;6.88;3.80;;;13.70;83.30;;;;;;5060800;28;20197;-87
2023/10/12 06:08:37;;;;;;;6.82;3.58;;;13.80;82.60;;;;;;5060687;28;20280;-90
2023/10/12 06:11:11;;;;;;;8.32;3.75;;;13.90;82.40;;;;;;5066808;28;20237;-87
2023/10/12 06:13:42;;;;;;;6.35;3.83;;;13.90;82.50;;;;;;5066210;28;20197;-87
2023/10/12 06:16:14;;;;;;;8.95;4.20;;;13.80;82.50;;;;;;5063002;28;20223;-87
2023/10/12 06:18:44;;;;;;;6.10;3.65;;;13.90;83.40;;;;;;5066456;28;20219;-86
2023/10/12 06:21:17;;;;;;;16.48;4.65;;;13.90;82.80;;;;;;5063193;28;20221;-87
2023/10/12 06:23:48;;;;;;;8.90;3.97;;;14.00;81.80;;;;;;5069425;28;20410;-88
2023/10/12 06:26:28;;;;;;;5.50;3.63;;;14.00;81.70;;;;;;5060739;28;20674;-89
2023/10/12 06:28:57;;;;;;;8.48;4.10;;;14.10;82.00;;;;;;5068853;28;20253;-89
2023/10/12 06:31:25;;;;;;;7.03;3.90;;;14.10;81.80;;;;;;5070109;28;20204;-89
2023/10/12 06:33:55;;;;;;;6.35;3.40;;;14.20;81.90;;;;;;5067061;28;20347;-88
2023/10/12 06:36:36;;;;;;;9.30;4.03;;;14.20;81.50;;;;;;5065957;28;20194;-88
2023/10/12 06:40:08;;;;;;;12.32;4.10;;;14.30;81.70;;;;;;5068141;28;20200;-89
2023/10/12 06:41:59;;;;;;;7.55;4.15;;;14.40;81.50;;;;;;5064135;28;20203;-89
2023/10/12 06:44:27;;;;;;;6.22;3.65;;;14.50;81.30;;;;;;5074395;28;20205;-90
2023/10/12 06:46:53;;;;;;;8.40;3.78;;;14.50;81.50;;;;;;5074124;28;20742;-90
2023/10/12 06:49:23;;;;;;;7.90;3.47;;;14.50;81.50;;;;;;5053160;28;20277;-90
2023/10/12 06:52:00;;;;;;;8.27;4.60;;;14.60;81.70;;;;;;5066358;28;20255;-89
2023/10/12 06:54:32;;;;;;;13.18;4.40;;;14.70;81.60;;;;;;5065531;28;20197;-89
2023/10/12 06:59:52;;;;;;;6.10;3.85;;;14.80;81.60;;;;;;5064889;28;20646;-88
2023/10/12 07:02:22;;;;;;;6.30;3.47;;;14.90;81.40;;;;;;5073028;28;20311;-88
2023/10/12 07:04:53;;;;;;;6.68;3.92;;;14.90;80.40;;;;;;5066884;28;20211;-88
2023/10/12 07:07:26;;;;;;;7.03;4.18;;;15.00;79.70;;;;;;5065278;28;20194;-89
2023/10/12 07:09:59;;;;;;;7.90;3.83;;;15.10;79.70;;;;;;5061921;28;20198;-86
2023/10/12 07:12:28;;;;;;;6.82;4.50;;;15.10;79.50;;;;;;5063525;28;20202;-88
2023/10/12 07:14:55;;;;;;;6.63;3.72;;;15.10;79.70;;;;;;5067191;28;20205;-88
2023/10/12 07:17:31;;;;;;;8.63;4.00;;;15.20;79.20;;;;;;5061299;28;20204;-88
2023/10/12 07:19:58;;;;;;;6.28;4.05;;;15.20;79.00;;;;;;5071827;28;20296;-89
2023/10/12 07:22:25;;;;;;;7.85;3.63;;;15.20;79.60;;;;;;5059670;28;20213;-89
2023/10/12 07:24:53;;;;;;;6.72;3.80;;;15.20;79.60;;;;;;5066833;28;20205;-87
2023/10/12 07:27:21;;;;;;;6.80;4.22;;;15.20;80.30;;;;;;5067175;28;20201;-89
2023/10/12 07:30:02;;;;;;;5.07;4.10;;;15.20;81.10;;;;;;5066372;28;20696;-89
2023/10/12 07:32:31;;;;;;;8.18;4.15;;;15.30;80.70;;;;;;5065448;28;20291;-87
2023/10/12 07:35:06;;;;;;;8.40;4.78;;;15.30;80.50;;;;;;5063531;28;20622;-86
2023/10/12 07:37:33;;;;;;;10.23;4.40;;;15.40;81.10;;;;;;5067725;28;20258;-86
2023/10/12 07:40:16;;;;;;;10.13;4.60;;;15.50;80.30;;;;;;5058632;28;20197;-87
2023/10/12 07:42:46;;;;;;;13.68;4.75;;;15.60;80.10;;;;;;5065362;28;20220;-89
2023/10/12 07:45:15;;;;;;;10.70;4.85;;;15.70;79.90;;;;;;5063853;28;20198;-88
2023/10/12 07:47:42;;;;;;;11.23;4.10;;;15.90;77.90;;;;;;5064026;28;20204;-87
2023/10/12 07:50:12;;;;;;;8.13;4.18;;;16.20;69.30;;;;;;5047700;28;20650;-87
2023/10/12 07:52:40;;;;;;;10.00;4.22;;;16.40;67.00;;;;;;5067479;28;20221;-87
2023/10/12 07:55:12;;;;;;;6.50;4.07;;;16.60;64.40;;;;;;5067395;28;20217;-88
2023/10/12 07:57:39;;;;;;;6.95;3.97;;;16.80;63.60;;;;;;5068184;28;20681;-87
2023/10/12 08:08:37;;;;;;;6.38;3.13;;;17.60;51.50;;;;;;5026093;28;20236;-88
2023/10/12 08:11:22;;;;;;;7.03;3.50;;;17.80;49.70;;;;;;5064054;28;20210;-86
2023/10/12 08:13:49;;;;;;;8.82;3.53;;;18.00;47.00;;;;;;5071401;28;20205;-89
2023/10/12 08:16:25;;;;;;;6.10;3.22;;;18.30;44.90;;;;;;5067059;28;20208;-90
2023/10/12 08:19:23;;;;;;;5.43;3.35;;;18.50;44.30;;;;;;5067460;28;20270;-90
2023/10/12 08:21:58;;;;;;;6.22;3.50;;;18.70;42.60;;;;;;5063411;28;20203;-89
2023/10/12 08:24:25;;;;;;;4.90;3.30;;;18.90;42.70;;;;;;5067554;28;20232;-88
2023/10/12 08:26:58;;;;;;;6.75;3.55;;;19.20;39.30;;;;;;5061138;28;20193;-89
2023/10/12 08:32:16;;;;;;;5.32;3.20;;;19.60;33.80;;;;;;5022381;28;20236;-88
2023/10/12 08:37:27;;;;;;;5.65;3.72;;;19.90;32.00;;;;;;5066870;28;20286;-88
2023/10/12 08:40:01;;;;;;;6.03;3.67;;;20.10;28.60;;;;;;5065464;28;20251;-88
2023/10/12 08:42:39;;;;;;;8.68;4.00;;;20.40;28.70;;;;;;5065041;28;20189;-87
2023/10/12 08:45:09;;;;;;;7.88;3.80;;;20.60;28.30;;;;;;5064591;28;20541;-86
2023/10/12 08:47:48;;;;;;;8.50;3.85;;;21.00;27.20;;;;;;5068344;28;20211;-88
2023/10/12 08:53:05;;;;;;;5.78;3.50;;;21.50;23.60;;;;;;5062179;28;20692;-87
2023/10/12 08:55:32;;;;;;;8.13;3.70;;;21.80;21.30;;;;;;5059624;28;20201;-87
2023/10/12 08:58:11;;;;;;;10.68;4.18;;;22.10;19.80;;;;;;5063536;28;20201;-86
2023/10/12 09:00:42;;;;;;;5.28;3.13;;;22.20;19.10;;;;;;5065962;28;20272;-86
2023/10/12 09:03:24;;;;;;;6.65;3.30;;;22.50;17.80;;;;;;5061188;28;20276;-85
2023/10/12 09:05:54;;;;;;;8.65;3.72;;;22.60;18.50;;;;;;5067828;28;20200;-86
2023/10/12 09:08:39;;;;;;;7.15;3.65;;;22.80;18.60;;;;;;5071003;28;20199;-87
2023/10/12 09:11:14;;;;;;;8.68;3.55;;;23.10;19.10;;;;;;5066828;28;20203;-84
2023/10/12 09:13:45;;;;;;;5.38;3.35;;;23.70;17.00;;;;;;5070906;28;20225;-82
2023/10/12 09:16:14;;;;;;;6.57;3.60;;;24.10;15.40;;;;;;5071405;28;20200;-85
2023/10/12 09:18:44;;;;;;;8.77;4.07;;;24.60;15.30;;;;;;5059674;28;20285;-85
2023/10/12 09:21:23;;;;;;;9.32;4.18;;;24.70;15.10;;;;;;5069299;28;20761;-87
2023/10/12 09:23:52;;;;;;;5.93;3.72;;;24.60;14.40;;;;;;5068516;28;20228;-85
2023/10/12 09:26:30;;;;;;;5.97;3.65;;;24.50;15.50;;;;;;5061650;28;20882;-85
2023/10/12 09:29:20;;;;;;;5.40;3.50;;;24.50;16.10;;;;;;5065858;28;20226;-86
2023/10/12 09:32:13;;;;;;;7.45;3.58;;;24.50;15.10;;;;;;5067358;28;20200;-85
2023/10/12 09:34:43;;;;;;;6.97;3.90;;;24.50;16.30;;;;;;5081605;28;20192;-85
2023/10/12 09:37:17;;;;;;;6.88;3.70;;;24.30;16.80;;;;;;5070294;28;20200;-86
2023/10/12 09:39:46;;;;;;;10.05;4.07;;;24.40;16.90;;;;;;5061137;28;20205;-85
2023/10/12 09:42:23;;;;;;;7.18;3.70;;;24.40;16.70;;;;;;5065782;28;20192;-87
2023/10/12 09:45:01;;;;;;;8.10;3.60;;;24.90;16.40;;;;;;5060548;28;20224;-86
2023/10/12 09:47:43;;;;;;;8.10;3.90;;;25.90;14.60;;;;;;5064126;28;20201;-86
2023/10/12 09:50:14;;;;;;;9.43;3.80;;;27.00;12.00;;;;;;5068250;28;20273;-85
2023/10/12 09:52:57;;;;;;;8.82;4.00;;;27.60;10.20;;;;;;5063351;28;20584;-88
2023/10/12 09:55:32;;;;;;;9.85;4.07;;;27.80;10.80;;;;;;5060740;28;20248;-86
2023/10/12 09:58:12;;;;;;;7.13;4.10;;;28.30;9.80;;;;;;5062856;28;20241;-90
2023/10/12 10:01:01;;;;;;;7.75;4.35;;;29.00;8.80;;;;;;5059953;28;20221;-89
2023/10/12 10:03:35;;;;;;;6.70;4.38;;;29.30;6.50;;;;;;5068714;28;20225;-90
2023/10/12 10:06:18;;;;;;;6.55;4.47;;;28.80;7.50;;;;;;5073025;28;20233;-90
2023/10/12 10:09:03;;;;;;;5.60;4.50;;;28.50;8.80;;;;;;5065707;28;20196;-91
2023/10/12 10:11:31;;;;;;;7.63;4.03;;;28.70;9.10;;;;;;5069989;28;20275;-92
2023/10/12 10:13:58;;;;;;;9.85;4.30;;;28.80;7.30;;;;;;5075224;28;20197;-89
2023/10/12 10:16:37;;;;;;;11.02;3.92;;;28.80;8.40;;;;;;5073635;28;20201;-89
2023/10/12 10:19:13;;;;;;;9.68;4.43;;;28.50;8.20;;;;;;5072462;28;20197;-89
2023/10/12 10:21:49;;;;;;;5.75;3.95;;;28.30;9.30;;;;;;5061450;28;20223;-88
2023/10/12 10:24:23;;;;;;;7.57;4.43;;;28.20;11.20;;;;;;5072158;28;20224;-89
2023/10/12 10:26:57;;;;;;;10.48;4.43;;;29.00;7.60;;;;;;5070604;28;20197;-89
2023/10/12 10:29:52;;;;;;;9.05;4.68;;;28.90;8.20;;;;;;5064382;28;20555;-89
2023/10/12 10:32:23;;;;;;;5.57;3.88;;;28.40;7.90;;;;;;5072770;28;20201;-91
2023/10/12 10:34:56;;;;;;;6.22;4.22;;;27.60;8.50;;;;;;5072063;28;20201;-89
2023/10/12 10:37:47;;;;;;;7.78;4.55;;;27.00;8.50;;;;;;5070063;28;20201;-90
2023/10/12 10:40:18;;;;;;;6.07;3.90;;;26.50;10.00;;;;;;5070186;28;20193;-88
2023/10/12 10:42:57;;;;;;;8.70;4.10;;;26.20;10.20;;;;;;5074171;28;20205;-88
2023/10/12 10:45:26;;;;;;;7.63;4.15;;;26.10;10.80;;;;;;5063353;28;20197;-90
2023/10/12 10:47:53;;;;;;;7.95;3.95;;;25.90;10.80;;;;;;5071962;28;20200;-90
2023/10/12 10:50:21;;;;;;;7.20;3.55;;;25.80;10.50;;;;;;5071108;28;20203;-89
2023/10/12 10:52:49;;;;;;;7.35;4.00;;;25.80;10.10;;;;;;5071838;28;20197;-85
2023/10/12 10:55:24;;;;;;;6.05;3.65;;;26.00;11.30;;;;;;5062411;28;20220;-85
2023/10/12 10:57:56;;;;;;;9.00;3.83;;;26.10;10.10;;;;;;5063785;28;20574;-83
2023/10/12 11:00:33;;;;;;;9.00;4.15;;;26.10;10.60;;;;;;5068897;28;20201;-85
2023/10/12 11:03:03;;;;;;;10.45;3.97;;;26.20;9.40;;;;;;5066593;28;20549;-83
2023/10/12 11:05:30;;;;;;;11.05;4.20;;;26.30;9.90;;;;;;5070795;28;20196;-87
2023/10/12 11:08:15;;;;;;;8.57;4.07;;;26.50;9.50;;;;;;5061118;28;20213;-85
2023/10/12 11:13:25;;;;;;;11.20;3.85;;;26.60;9.70;;;;;;5071623;28;20204;-87
2023/10/12 11:15:52;;;;;;;11.60;3.92;;;26.40;9.00;;;;;;5065847;28;20192;-85
2023/10/12 11:18:19;;;;;;;7.13;4.00;;;26.10;9.30;;;;;;5067053;28;20216;-86
2023/10/12 11:20:49;;;;;;;14.82;4.15;;;26.20;10.20;;;;;;5069473;28;20193;-84
2023/10/12 11:23:18;;;;;;;8.85;4.13;;;26.20;9.70;;;;;;5068128;28;20206;-86
2023/10/12 11:25:46;;;;;;;6.00;3.97;;;26.10;8.60;;;;;;5068667;28;20624;-86
2023/10/12 11:28:26;;;;;;;6.45;3.72;;;25.90;9.00;;;;;;5067858;28;20224;-85
2023/10/12 11:31:01;;;;;;;12.52;4.40;;;25.60;10.70;;;;;;5068482;28;20189;-85
2023/10/12 11:33:29;;;;;;;10.68;4.30;;;25.40;10.10;;;;;;5070988;28;20282;-86
2023/10/12 11:36:00;;;;;;;8.55;3.65;;;25.20;10.20;;;;;;5068299;28;20200;-89
2023/10/12 11:38:28;;;;;;;9.13;4.05;;;25.20;10.60;;;;;;5068844;28;20276;-88
2023/10/12 11:40:57;;;;;;;10.18;4.05;;;25.30;10.50;;;;;;5066333;28;20205;-87
2023/10/12 11:43:44;;;;;;;9.13;4.15;;;25.30;10.60;;;;;;5062489;28;20245;-87
2023/10/12 11:46:14;;;;;;;8.85;4.88;;;25.40;10.30;;;;;;5063720;28;20208;-84
2023/10/12 11:48:41;;;;;;;8.05;3.90;;;25.80;10.20;;;;;;5063582;28;20223;-86
2023/10/12 11:51:12;;;;;;;7.22;3.90;;;26.00;10.30;;;;;;5066592;28;20791;-87
2023/10/12 11:53:39;;;;;;;11.18;3.80;;;26.00;9.10;;;;;;5061118;28;20198;-87
2023/10/12 11:56:13;;;;;;;7.70;3.80;;;26.20;10.20;;;;;;5068656;28;20274;-84
2023/10/12 11:58:40;;;;;;;8.20;3.85;;;26.30;10.10;;;;;;5066056;28;20197;-84
2023/10/12 12:01:10;;;;;;;7.50;3.65;;;26.40;9.60;;;;;;5067339;28;20205;-85
2023/10/12 12:03:39;;;;;;;6.32;3.90;;;26.30;9.80;;;;;;5072645;28;20571;-88
2023/10/12 12:06:10;;;;;;;9.25;4.25;;;26.30;10.00;;;;;;5062246;28;20209;-88
2023/10/12 12:08:37;;;;;;;6.40;4.03;;;26.00;9.40;;;;;;5067530;28;20193;-88
2023/10/12 12:11:04;;;;;;;8.63;3.90;;;25.90;10.00;;;;;;5069092;28;20200;-88
2023/10/12 12:13:35;;;;;;;14.35;4.15;;;25.80;10.00;;;;;;5068970;28;20193;-89
2023/10/12 12:16:03;;;;;;;8.77;3.88;;;25.60;10.80;;;;;;5064757;28;20201;-88
2023/10/12 12:18:29;;;;;;;7.32;4.47;;;25.60;10.70;;;;;;5061138;28;20630;-88
2023/10/12 12:20:57;;;;;;;8.38;3.67;;;25.50;9.60;;;;;;5064274;28;20200;-88
2023/10/12 12:23:26;;;;;;;8.18;4.00;;;25.50;9.60;;;;;;5064637;28;20250;-87
2023/10/12 12:25:59;;;;;;;9.85;3.88;;;25.40;9.90;;;;;;5066680;28;20200;-85
2023/10/12 12:28:32;;;;;;;7.60;3.70;;;25.40;10.20;;;;;;5061950;28;20198;-86
2023/10/12 12:31:00;;;;;;;6.68;3.80;;;25.20;9.50;;;;;;5066658;28;20680;-87
2023/10/12 12:33:28;;;;;;;5.25;3.60;;;25.10;10.40;;;;;;5066162;28;20194;-86
2023/10/12 12:35:59;;;;;;;11.68;4.10;;;24.90;11.30;;;;;;5064621;28;20232;-88
2023/10/12 12:38:43;;;;;;;9.13;4.35;;;24.80;11.90;;;;;;5067941;28;20592;-85
2023/10/12 12:41:18;;;;;;;9.45;3.97;;;24.80;10.20;;;;;;5068069;28;20196;-87
2023/10/12 12:43:45;;;;;;;7.43;3.85;;;24.90;11.30;;;;;;5064825;28;20224;-86
2023/10/12 12:46:13;;;;;;;12.52;3.50;;;24.80;10.80;;;;;;5065815;28;20205;-86
2023/10/12 12:48:41;;;;;;;8.07;4.07;;;24.70;10.10;;;;;;5071076;28;20198;-86
2023/10/12 12:51:11;;;;;;;5.93;3.75;;;24.70;11.50;;;;;;5060661;28;20308;-87
2023/10/12 12:53:38;;;;;;;9.07;3.90;;;24.70;11.80;;;;;;5069236;28;20208;-87
2023/10/12 12:56:10;;;;;;;8.82;4.13;;;24.70;10.30;;;;;;5070171;28;20288;-87
2023/10/12 12:58:37;;;;;;;9.20;3.72;;;24.70;10.50;;;;;;5070570;28;20207;-87
2023/10/12 13:01:04;;;;;;;8.48;3.90;;;24.70;11.10;;;;;;5060280;28;20228;-86
2023/10/12 13:03:32;;;;;;;8.98;3.78;;;24.80;10.90;;;;;;5064951;28;20557;-87
2023/10/12 13:05:59;;;;;;;12.82;4.28;;;24.80;11.30;;;;;;5069385;28;20209;-86
2023/10/12 13:08:26;;;;;;;13.85;3.92;;;24.80;10.50;;;;;;5063317;28;20213;-87
2023/10/12 13:10:57;;;;;;;15.93;4.22;;;24.70;11.00;;;;;;5071066;28;20209;-86
2023/10/12 13:13:23;;;;;;;9.45;3.80;;;24.60;11.10;;;;;;5071375;28;20715;-87
2023/10/12 13:15:50;;;;;;;8.52;4.05;;;24.40;11.60;;;;;;5064388;28;20205;-86
2023/10/12 13:18:17;;;;;;;10.73;3.75;;;24.40;11.50;;;;;;5063928;28;20200;-87
2023/10/12 13:20:47;;;;;;;8.02;3.90;;;24.40;12.10;;;;;;5065374;28;20221;-87
2023/10/12 13:23:15;;;;;;;11.20;4.07;;;24.30;12.00;;;;;;5066007;28;20617;-87
2023/10/12 13:25:42;;;;;;;10.73;3.78;;;24.30;11.40;;;;;;5064987;28;20332;-87
2023/10/12 13:28:10;;;;;;;9.15;3.90;;;24.50;11.10;;;;;;5074561;28;20193;-87
2023/10/12 13:30:37;;;;;;;8.80;3.50;;;24.50;11.60;;;;;;5070722;28;20197;-87
2023/10/12 13:33:05;;;;;;;8.43;3.67;;;24.60;11.40;;;;;;5066237;28;20243;-86
2023/10/12 13:35:41;;;;;;;11.68;3.90;;;24.70;11.30;;;;;;5065599;28;20201;-89
2023/10/12 13:38:10;;;;;;;6.68;3.70;;;24.70;11.60;;;;;;5066478;28;20200;-87
2023/10/12 13:40:38;;;;;;;9.25;4.05;;;24.80;11.00;;;;;;5059827;28;20194;-87
2023/10/12 13:43:14;;;;;;;9.90;3.88;;;24.70;12.10;;;;;;5063073;28;20318;-87
2023/10/12 13:45:47;;;;;;;9.43;3.90;;;24.60;12.00;;;;;;5062211;28;20217;-87
2023/10/12 13:48:17;;;;;;;8.07;3.70;;;24.50;11.70;;;;;;5066358;28;20228;-90